sensor_id;sensor_type;location;lat;lon;timestamp;P1;durP1;ratioP1;P2;durP2;ratioP2
39486;SDS011;25173;50.430;18.926;2022-11-04T00:00:00;29.75;;;15.88;;
39486;SDS011;25173;50.430;18.926;2022-11-04T00:03:01;27.92;;;16.15;;
39486;SDS011;25173;50.430;18.926;2022-11-04T00:06:01;28.58;;;16.42;;
39486;SDS011;25173;50.430;18.926;2022-11-04T00:09:04;28.25;;;16.85;;
39486;SDS011;25173;50.430;18.926;2022-11-04T00:12:07;29.90;;;16.48;;
39486;SDS011;25173;50.430;18.926;2022-11-04T00:15:26;26.63;;;16.10;;
39486;SDS011;25173;50.430;18.926;2022-11-04T00:18:45;29.35;;;16.42;;
39486;SDS011;25173;50.430;18.926;2022-11-04T00:21:46;29.77;;;18.77;;
39486;SDS011;25173;50.430;18.926;2022-11-04T00:25:05;30.48;;;18.45;;
39486;SDS011;25173;50.430;18.926;2022-11-04T00:28:24;30.50;;;19.33;;
39486;SDS011;25173;50.430;18.926;2022-11-04T00:31:43;29.80;;;18.75;;
39486;SDS011;25173;50.430;18.926;2022-11-04T00:35:02;32.20;;;17.48;;
39486;SDS011;25173;50.430;18.926;2022-11-04T00:38:03;26.13;;;15.85;;
39486;SDS011;25173;50.430;18.926;2022-11-04T00:41:03;25.05;;;16.05;;
39486;SDS011;25173;50.430;18.926;2022-11-04T00:44:24;32.17;;;17.17;;
39486;SDS011;25173;50.430;18.926;2022-11-04T00:47:24;28.95;;;17.08;;
39486;SDS011;25173;50.430;18.926;2022-11-04T00:50:25;31.75;;;18.45;;
39486;SDS011;25173;50.430;18.926;2022-11-04T00:53:26;28.13;;;18.45;;
39486;SDS011;25173;50.430;18.926;2022-11-04T00:56:26;29.65;;;19.08;;
39486;SDS011;25173;50.430;18.926;2022-11-04T00:59:27;28.65;;;16.55;;
39486;SDS011;25173;50.430;18.926;2022-11-04T01:02:28;29.80;;;17.52;;
39486;SDS011;25173;50.430;18.926;2022-11-04T01:05:28;31.55;;;17.95;;
39486;SDS011;25173;50.430;18.926;2022-11-04T01:08:29;30.20;;;17.52;;
39486;SDS011;25173;50.430;18.926;2022-11-04T01:11:29;27.77;;;17.23;;
39486;SDS011;25173;50.430;18.926;2022-11-04T01:14:30;28.30;;;18.15;;
39486;SDS011;25173;50.430;18.926;2022-11-04T01:17:31;28.17;;;17.13;;
39486;SDS011;25173;50.430;18.926;2022-11-04T01:20:32;28.20;;;16.23;;
39486;SDS011;25173;50.430;18.926;2022-11-04T01:23:33;23.38;;;14.88;;
39486;SDS011;25173;50.430;18.926;2022-11-04T01:26:34;25.58;;;15.80;;
39486;SDS011;25173;50.430;18.926;2022-11-04T01:29:35;24.73;;;15.43;;
39486;SDS011;25173;50.430;18.926;2022-11-04T01:32:36;29.05;;;16.73;;
39486;SDS011;25173;50.430;18.926;2022-11-04T01:35:36;23.23;;;16.10;;
39486;SDS011;25173;50.430;18.926;2022-11-04T01:38:37;24.73;;;14.32;;
39486;SDS011;25173;50.430;18.926;2022-11-04T01:41:38;24.77;;;15.02;;
39486;SDS011;25173;50.430;18.926;2022-11-04T01:51:05;23.67;;;15.20;;
39486;SDS011;25173;50.430;18.926;2022-11-04T01:54:06;24.25;;;14.35;;
39486;SDS011;25173;50.430;18.926;2022-11-04T01:57:10;27.00;;;15.48;;
39486;SDS011;25173;50.430;18.926;2022-11-04T02:00:16;21.65;;;14.13;;
39486;SDS011;25173;50.430;18.926;2022-11-04T02:03:19;20.23;;;13.57;;
39486;SDS011;25173;50.430;18.926;2022-11-04T02:09:25;22.83;;;13.63;;
39486;SDS011;25173;50.430;18.926;2022-11-04T02:12:27;23.48;;;13.05;;
39486;SDS011;25173;50.430;18.926;2022-11-04T02:15:51;23.58;;;14.40;;
39486;SDS011;25173;50.430;18.926;2022-11-04T02:22:23;23.52;;;15.15;;
39486;SDS011;25173;50.430;18.926;2022-11-04T02:25:41;25.45;;;16.35;;
39486;SDS011;25173;50.430;18.926;2022-11-04T02:36:15;25.98;;;16.42;;
39486;SDS011;25173;50.430;18.926;2022-11-04T02:42:56;23.90;;;14.48;;
39486;SDS011;25173;50.430;18.926;2022-11-04T02:46:00;23.92;;;14.75;;
39486;SDS011;25173;50.430;18.926;2022-11-04T02:55:48;18.45;;;11.50;;
39486;SDS011;25173;50.430;18.926;2022-11-04T02:58:57;16.27;;;10.57;;
39486;SDS011;25173;50.430;18.926;2022-11-04T03:02:04;18.48;;;11.60;;
39486;SDS011;25173;50.430;18.926;2022-11-04T03:05:15;15.32;;;10.38;;
39486;SDS011;25173;50.430;18.926;2022-11-04T03:08:38;16.30;;;9.73;;
39486;SDS011;25173;50.430;18.926;2022-11-04T03:11:44;20.58;;;11.02;;
39486;SDS011;25173;50.430;18.926;2022-11-04T03:14:51;14.93;;;9.95;;
39486;SDS011;25173;50.430;18.926;2022-11-04T03:21:08;17.15;;;10.35;;
39486;SDS011;25173;50.430;18.926;2022-11-04T03:24:12;15.07;;;9.98;;
39486;SDS011;25173;50.430;18.926;2022-11-04T03:30:38;16.70;;;10.27;;
39486;SDS011;25173;50.430;18.926;2022-11-04T03:33:46;15.57;;;10.23;;
39486;SDS011;25173;50.430;18.926;2022-11-04T03:36:49;19.35;;;12.32;;
39486;SDS011;25173;50.430;18.926;2022-11-04T03:39:50;18.95;;;13.20;;
39486;SDS011;25173;50.430;18.926;2022-11-04T03:42:59;26.17;;;15.88;;
39486;SDS011;25173;50.430;18.926;2022-11-04T03:46:04;25.75;;;16.02;;
39486;SDS011;25173;50.430;18.926;2022-11-04T03:49:05;29.52;;;18.65;;
39486;SDS011;25173;50.430;18.926;2022-11-04T03:52:07;22.17;;;15.23;;
39486;SDS011;25173;50.430;18.926;2022-11-04T03:55:08;19.50;;;13.25;;
39486;SDS011;25173;50.430;18.926;2022-11-04T04:01:53;14.80;;;9.77;;
39486;SDS011;25173;50.430;18.926;2022-11-04T04:04:58;16.10;;;8.85;;
39486;SDS011;25173;50.430;18.926;2022-11-04T04:14:26;18.17;;;9.38;;
39486;SDS011;25173;50.430;18.926;2022-11-04T04:17:42;15.93;;;8.82;;
39486;SDS011;25173;50.430;18.926;2022-11-04T04:20:52;14.15;;;9.73;;
39486;SDS011;25173;50.430;18.926;2022-11-04T04:23:57;15.77;;;9.75;;
39486;SDS011;25173;50.430;18.926;2022-11-04T04:27:19;17.20;;;8.68;;
39486;SDS011;25173;50.430;18.926;2022-11-04T04:30:30;14.10;;;9.02;;
39486;SDS011;25173;50.430;18.926;2022-11-04T04:33:31;13.90;;;9.00;;
39486;SDS011;25173;50.430;18.926;2022-11-04T04:36:33;14.95;;;9.13;;
39486;SDS011;25173;50.430;18.926;2022-11-04T04:39:45;13.73;;;8.70;;
39486;SDS011;25173;50.430;18.926;2022-11-04T04:43:12;14.50;;;9.23;;
39486;SDS011;25173;50.430;18.926;2022-11-04T04:46:34;16.95;;;8.98;;
39486;SDS011;25173;50.430;18.926;2022-11-04T04:49:47;13.80;;;8.15;;
39486;SDS011;25173;50.430;18.926;2022-11-04T04:52:55;13.48;;;8.40;;
39486;SDS011;25173;50.430;18.926;2022-11-04T04:55:58;15.75;;;9.02;;
39486;SDS011;25173;50.430;18.926;2022-11-04T04:58:59;16.73;;;10.57;;
39486;SDS011;25173;50.430;18.926;2022-11-04T05:01:59;25.98;;;17.50;;
39486;SDS011;25173;50.430;18.926;2022-11-04T05:05:00;19.27;;;12.00;;
39486;SDS011;25173;50.430;18.926;2022-11-04T05:08:04;21.55;;;12.82;;
39486;SDS011;25173;50.430;18.926;2022-11-04T05:11:08;22.25;;;13.73;;
39486;SDS011;25173;50.430;18.926;2022-11-04T05:14:08;19.88;;;11.90;;
39486;SDS011;25173;50.430;18.926;2022-11-04T05:17:09;16.50;;;11.10;;
39486;SDS011;25173;50.430;18.926;2022-11-04T05:20:10;17.70;;;11.15;;
39486;SDS011;25173;50.430;18.926;2022-11-04T05:23:11;19.17;;;11.77;;
39486;SDS011;25173;50.430;18.926;2022-11-04T05:26:12;20.10;;;12.40;;
39486;SDS011;25173;50.430;18.926;2022-11-04T05:29:14;17.58;;;9.50;;
39486;SDS011;25173;50.430;18.926;2022-11-04T05:32:14;13.95;;;8.77;;
39486;SDS011;25173;50.430;18.926;2022-11-04T05:35:15;17.27;;;9.63;;
39486;SDS011;25173;50.430;18.926;2022-11-04T05:38:15;15.00;;;8.48;;
39486;SDS011;25173;50.430;18.926;2022-11-04T05:41:16;15.55;;;7.65;;
39486;SDS011;25173;50.430;18.926;2022-11-04T05:44:26;17.80;;;8.25;;
39486;SDS011;25173;50.430;18.926;2022-11-04T05:47:27;12.63;;;8.07;;
39486;SDS011;25173;50.430;18.926;2022-11-04T05:50:28;14.10;;;8.82;;
39486;SDS011;25173;50.430;18.926;2022-11-04T05:53:29;15.95;;;8.38;;
39486;SDS011;25173;50.430;18.926;2022-11-04T05:56:30;13.05;;;8.00;;
39486;SDS011;25173;50.430;18.926;2022-11-04T05:59:30;12.85;;;8.48;;
39486;SDS011;25173;50.430;18.926;2022-11-04T06:02:31;17.20;;;8.48;;
39486;SDS011;25173;50.430;18.926;2022-11-04T06:05:32;15.77;;;9.05;;
39486;SDS011;25173;50.430;18.926;2022-11-04T06:08:32;13.82;;;8.70;;
39486;SDS011;25173;50.430;18.926;2022-11-04T06:11:34;10.52;;;7.50;;
39486;SDS011;25173;50.430;18.926;2022-11-04T06:14:35;13.75;;;7.65;;
39486;SDS011;25173;50.430;18.926;2022-11-04T06:17:36;13.85;;;7.90;;
39486;SDS011;25173;50.430;18.926;2022-11-04T06:20:37;19.27;;;8.30;;
39486;SDS011;25173;50.430;18.926;2022-11-04T06:23:38;17.98;;;7.43;;
39486;SDS011;25173;50.430;18.926;2022-11-04T06:26:39;12.85;;;7.72;;
39486;SDS011;25173;50.430;18.926;2022-11-04T06:29:40;11.73;;;8.15;;
39486;SDS011;25173;50.430;18.926;2022-11-04T06:32:41;18.27;;;8.68;;
39486;SDS011;25173;50.430;18.926;2022-11-04T06:35:41;14.40;;;8.48;;
39486;SDS011;25173;50.430;18.926;2022-11-04T06:38:42;20.13;;;10.43;;
39486;SDS011;25173;50.430;18.926;2022-11-04T06:41:43;15.07;;;8.98;;
39486;SDS011;25173;50.430;18.926;2022-11-04T06:44:43;17.80;;;9.65;;
39486;SDS011;25173;50.430;18.926;2022-11-04T06:47:44;21.42;;;12.27;;
39486;SDS011;25173;50.430;18.926;2022-11-04T06:50:45;17.63;;;12.43;;
39486;SDS011;25173;50.430;18.926;2022-11-04T06:53:45;21.98;;;14.88;;
39486;SDS011;25173;50.430;18.926;2022-11-04T06:56:46;24.13;;;14.55;;
39486;SDS011;25173;50.430;18.926;2022-11-04T06:59:46;21.02;;;13.98;;
39486;SDS011;25173;50.430;18.926;2022-11-04T07:02:47;24.80;;;15.93;;
39486;SDS011;25173;50.430;18.926;2022-11-04T07:05:47;27.98;;;16.85;;
39486;SDS011;25173;50.430;18.926;2022-11-04T07:08:49;29.00;;;16.88;;
39486;SDS011;25173;50.430;18.926;2022-11-04T07:11:51;24.30;;;14.48;;
39486;SDS011;25173;50.430;18.926;2022-11-04T07:14:52;22.17;;;11.80;;
39486;SDS011;25173;50.430;18.926;2022-11-04T07:17:54;22.65;;;11.35;;
39486;SDS011;25173;50.430;18.926;2022-11-04T07:20:56;22.92;;;10.30;;
39486;SDS011;25173;50.430;18.926;2022-11-04T07:23:57;18.38;;;12.23;;
39486;SDS011;25173;50.430;18.926;2022-11-04T07:26:57;21.23;;;12.85;;
39486;SDS011;25173;50.430;18.926;2022-11-04T07:29:58;20.90;;;12.05;;
39486;SDS011;25173;50.430;18.926;2022-11-04T07:32:58;25.25;;;12.55;;
39486;SDS011;25173;50.430;18.926;2022-11-04T07:36:06;23.25;;;15.00;;
39486;SDS011;25173;50.430;18.926;2022-11-04T07:39:09;23.17;;;13.27;;
39486;SDS011;25173;50.430;18.926;2022-11-04T07:42:10;20.77;;;13.35;;
39486;SDS011;25173;50.430;18.926;2022-11-04T07:45:13;18.75;;;12.88;;
39486;SDS011;25173;50.430;18.926;2022-11-04T07:48:13;24.27;;;15.32;;
39486;SDS011;25173;50.430;18.926;2022-11-04T07:51:15;26.35;;;14.27;;
39486;SDS011;25173;50.430;18.926;2022-11-04T07:54:17;23.67;;;14.13;;
39486;SDS011;25173;50.430;18.926;2022-11-04T07:57:18;24.55;;;14.00;;
39486;SDS011;25173;50.430;18.926;2022-11-04T08:00:18;26.73;;;15.27;;
39486;SDS011;25173;50.430;18.926;2022-11-04T08:03:19;24.75;;;14.02;;
39486;SDS011;25173;50.430;18.926;2022-11-04T08:06:20;23.17;;;13.30;;
39486;SDS011;25173;50.430;18.926;2022-11-04T08:09:21;23.30;;;13.52;;
39486;SDS011;25173;50.430;18.926;2022-11-04T08:12:22;26.05;;;14.05;;
39486;SDS011;25173;50.430;18.926;2022-11-04T08:15:23;21.85;;;14.43;;
39486;SDS011;25173;50.430;18.926;2022-11-04T08:18:25;29.25;;;15.75;;
39486;SDS011;25173;50.430;18.926;2022-11-04T08:21:26;22.90;;;13.48;;
39486;SDS011;25173;50.430;18.926;2022-11-04T08:24:31;25.40;;;13.68;;
39486;SDS011;25173;50.430;18.926;2022-11-04T08:27:31;19.58;;;12.65;;
39486;SDS011;25173;50.430;18.926;2022-11-04T08:30:33;23.08;;;11.85;;
39486;SDS011;25173;50.430;18.926;2022-11-04T08:33:34;26.73;;;14.45;;
39486;SDS011;25173;50.430;18.926;2022-11-04T08:36:36;20.42;;;13.07;;
39486;SDS011;25173;50.430;18.926;2022-11-04T08:39:40;21.27;;;12.50;;
39486;SDS011;25173;50.430;18.926;2022-11-04T08:42:41;21.75;;;12.50;;
39486;SDS011;25173;50.430;18.926;2022-11-04T08:45:42;19.80;;;11.77;;
39486;SDS011;25173;50.430;18.926;2022-11-04T08:48:44;22.92;;;10.93;;
39486;SDS011;25173;50.430;18.926;2022-11-04T08:51:45;26.00;;;12.52;;
39486;SDS011;25173;50.430;18.926;2022-11-04T08:54:48;18.80;;;10.93;;
39486;SDS011;25173;50.430;18.926;2022-11-04T08:57:49;28.52;;;15.55;;
39486;SDS011;25173;50.430;18.926;2022-11-04T09:00:50;35.47;;;16.50;;
39486;SDS011;25173;50.430;18.926;2022-11-04T09:03:51;20.95;;;10.93;;
39486;SDS011;25173;50.430;18.926;2022-11-04T09:06:52;22.70;;;11.88;;
39486;SDS011;25173;50.430;18.926;2022-11-04T09:09:55;16.92;;;9.38;;
39486;SDS011;25173;50.430;18.926;2022-11-04T09:12:55;27.35;;;12.60;;
39486;SDS011;25173;50.430;18.926;2022-11-04T09:15:56;38.08;;;18.58;;
39486;SDS011;25173;50.430;18.926;2022-11-04T09:18:57;33.22;;;17.02;;
39486;SDS011;25173;50.430;18.926;2022-11-04T09:21:57;31.02;;;17.00;;
39486;SDS011;25173;50.430;18.926;2022-11-04T09:24:58;30.88;;;16.00;;
39486;SDS011;25173;50.430;18.926;2022-11-04T09:27:59;28.30;;;14.35;;
39486;SDS011;25173;50.430;18.926;2022-11-04T09:31:02;25.95;;;12.32;;
39486;SDS011;25173;50.430;18.926;2022-11-04T09:34:04;22.20;;;12.73;;
39486;SDS011;25173;50.430;18.926;2022-11-04T09:37:04;23.10;;;15.20;;
39486;SDS011;25173;50.430;18.926;2022-11-04T09:40:05;26.98;;;11.77;;
39486;SDS011;25173;50.430;18.926;2022-11-04T09:46:29;32.40;;;16.02;;
39486;SDS011;25173;50.430;18.926;2022-11-04T09:49:33;34.05;;;22.20;;
39486;SDS011;25173;50.430;18.926;2022-11-04T09:52:38;18.85;;;11.90;;
39486;SDS011;25173;50.430;18.926;2022-11-04T09:58:53;25.40;;;12.05;;
39486;SDS011;25173;50.430;18.926;2022-11-04T10:05:14;21.23;;;11.55;;
39486;SDS011;25173;50.430;18.926;2022-11-04T10:11:51;24.80;;;11.07;;
39486;SDS011;25173;50.430;18.926;2022-11-04T10:25:03;20.35;;;10.93;;
39486;SDS011;25173;50.430;18.926;2022-11-04T10:28:10;20.02;;;10.85;;
39486;SDS011;25173;50.430;18.926;2022-11-04T10:31:35;24.40;;;11.15;;
39486;SDS011;25173;50.430;18.926;2022-11-04T10:34:47;21.13;;;11.82;;
39486;SDS011;25173;50.430;18.926;2022-11-04T10:38:23;27.02;;;11.93;;
39486;SDS011;25173;50.430;18.926;2022-11-04T10:41:37;23.58;;;11.07;;
39486;SDS011;25173;50.430;18.926;2022-11-04T10:44:39;20.67;;;12.18;;
39486;SDS011;25173;50.430;18.926;2022-11-04T10:47:46;23.05;;;13.32;;
39486;SDS011;25173;50.430;18.926;2022-11-04T10:50:57;30.98;;;12.15;;
39486;SDS011;25173;50.430;18.926;2022-11-04T10:53:58;23.35;;;11.43;;
39486;SDS011;25173;50.430;18.926;2022-11-04T10:57:00;24.35;;;11.40;;
39486;SDS011;25173;50.430;18.926;2022-11-04T11:00:02;22.50;;;12.48;;
39486;SDS011;25173;50.430;18.926;2022-11-04T11:03:20;24.33;;;13.05;;
39486;SDS011;25173;50.430;18.926;2022-11-04T11:06:24;22.35;;;12.25;;
39486;SDS011;25173;50.430;18.926;2022-11-04T11:09:27;22.88;;;11.75;;
39486;SDS011;25173;50.430;18.926;2022-11-04T11:12:29;24.38;;;13.75;;
39486;SDS011;25173;50.430;18.926;2022-11-04T11:15:39;22.15;;;11.77;;
39486;SDS011;25173;50.430;18.926;2022-11-04T11:18:41;21.48;;;11.52;;
39486;SDS011;25173;50.430;18.926;2022-11-04T11:21:43;22.92;;;11.85;;
39486;SDS011;25173;50.430;18.926;2022-11-04T11:24:47;25.95;;;14.15;;
39486;SDS011;25173;50.430;18.926;2022-11-04T11:27:57;25.25;;;12.05;;
39486;SDS011;25173;50.430;18.926;2022-11-04T11:31:01;23.52;;;13.13;;
39486;SDS011;25173;50.430;18.926;2022-11-04T11:34:18;26.52;;;11.90;;
39486;SDS011;25173;50.430;18.926;2022-11-04T11:37:30;21.77;;;13.10;;
39486;SDS011;25173;50.430;18.926;2022-11-04T11:40:36;30.45;;;14.02;;
39486;SDS011;25173;50.430;18.926;2022-11-04T11:43:39;23.92;;;13.07;;
39486;SDS011;25173;50.430;18.926;2022-11-04T11:46:48;25.02;;;12.85;;
39486;SDS011;25173;50.430;18.926;2022-11-04T11:50:03;26.05;;;13.13;;
39486;SDS011;25173;50.430;18.926;2022-11-04T11:53:34;29.45;;;13.70;;
39486;SDS011;25173;50.430;18.926;2022-11-04T11:56:39;27.25;;;13.90;;
39486;SDS011;25173;50.430;18.926;2022-11-04T11:59:47;25.50;;;13.68;;
39486;SDS011;25173;50.430;18.926;2022-11-04T12:06:13;32.08;;;13.50;;
39486;SDS011;25173;50.430;18.926;2022-11-04T12:19:26;27.15;;;15.25;;
39486;SDS011;25173;50.430;18.926;2022-11-04T12:22:36;28.40;;;16.02;;
39486;SDS011;25173;50.430;18.926;2022-11-04T12:42:27;30.50;;;16.80;;
39486;SDS011;25173;50.430;18.926;2022-11-04T12:51:43;29.38;;;16.35;;
39486;SDS011;25173;50.430;18.926;2022-11-04T12:58:28;31.08;;;17.38;;
39486;SDS011;25173;50.430;18.926;2022-11-04T13:05:38;60.97;;;24.23;;
39486;SDS011;25173;50.430;18.926;2022-11-04T13:08:45;40.22;;;17.40;;
39486;SDS011;25173;50.430;18.926;2022-11-04T13:18:03;27.73;;;15.77;;
39486;SDS011;25173;50.430;18.926;2022-11-04T13:21:15;40.47;;;15.65;;
39486;SDS011;25173;50.430;18.926;2022-11-04T13:24:25;30.83;;;15.88;;
39486;SDS011;25173;50.430;18.926;2022-11-04T13:27:37;36.33;;;18.52;;
39486;SDS011;25173;50.430;18.926;2022-11-04T13:43:55;26.80;;;16.17;;
39486;SDS011;25173;50.430;18.926;2022-11-04T13:47:00;30.35;;;16.05;;
39486;SDS011;25173;50.430;18.926;2022-11-04T13:50:03;41.78;;;21.40;;
39486;SDS011;25173;50.430;18.926;2022-11-04T13:53:06;51.53;;;24.77;;
39486;SDS011;25173;50.430;18.926;2022-11-04T13:56:24;41.40;;;22.20;;
39486;SDS011;25173;50.430;18.926;2022-11-04T13:59:33;44.92;;;20.67;;
39486;SDS011;25173;50.430;18.926;2022-11-04T14:02:44;161.32;;;93.43;;
39486;SDS011;25173;50.430;18.926;2022-11-04T14:05:58;54.78;;;29.88;;
39486;SDS011;25173;50.430;18.926;2022-11-04T14:09:22;42.15;;;19.88;;
39486;SDS011;25173;50.430;18.926;2022-11-04T14:12:31;75.15;;;38.53;;
39486;SDS011;25173;50.430;18.926;2022-11-04T14:18:57;73.22;;;32.97;;
39486;SDS011;25173;50.430;18.926;2022-11-04T14:25:41;39.75;;;22.10;;
39486;SDS011;25173;50.430;18.926;2022-11-04T14:29:24;34.17;;;17.42;;
39486;SDS011;25173;50.430;18.926;2022-11-04T14:35:30;34.72;;;17.48;;
39486;SDS011;25173;50.430;18.926;2022-11-04T14:38:32;35.47;;;19.27;;
39486;SDS011;25173;50.430;18.926;2022-11-04T14:44:46;37.75;;;21.08;;
39486;SDS011;25173;50.430;18.926;2022-11-04T14:47:51;65.45;;;40.28;;
39486;SDS011;25173;50.430;18.926;2022-11-04T14:50:55;54.35;;;29.30;;
39486;SDS011;25173;50.430;18.926;2022-11-04T14:54:04;48.75;;;26.70;;
39486;SDS011;25173;50.430;18.926;2022-11-04T14:57:20;53.08;;;34.83;;
39486;SDS011;25173;50.430;18.926;2022-11-04T15:00:29;55.67;;;31.52;;
39486;SDS011;25173;50.430;18.926;2022-11-04T15:03:36;79.93;;;41.20;;
39486;SDS011;25173;50.430;18.926;2022-11-04T15:06:38;87.63;;;47.85;;
39486;SDS011;25173;50.430;18.926;2022-11-04T15:09:40;94.90;;;49.58;;
39486;SDS011;25173;50.430;18.926;2022-11-04T15:12:47;88.95;;;42.25;;
39486;SDS011;25173;50.430;18.926;2022-11-04T15:15:52;71.75;;;42.42;;
39486;SDS011;25173;50.430;18.926;2022-11-04T15:18:56;72.07;;;36.63;;
39486;SDS011;25173;50.430;18.926;2022-11-04T15:22:02;66.78;;;34.70;;
39486;SDS011;25173;50.430;18.926;2022-11-04T15:25:05;66.95;;;37.33;;
39486;SDS011;25173;50.430;18.926;2022-11-04T15:31:26;52.08;;;30.90;;
39486;SDS011;25173;50.430;18.926;2022-11-04T15:34:29;62.13;;;30.90;;
39486;SDS011;25173;50.430;18.926;2022-11-04T15:37:30;61.05;;;31.88;;
39486;SDS011;25173;50.430;18.926;2022-11-04T15:40:32;53.50;;;31.92;;
39486;SDS011;25173;50.430;18.926;2022-11-04T15:43:34;54.60;;;34.50;;
39486;SDS011;25173;50.430;18.926;2022-11-04T15:46:35;52.95;;;33.83;;
39486;SDS011;25173;50.430;18.926;2022-11-04T15:49:36;49.13;;;31.27;;
39486;SDS011;25173;50.430;18.926;2022-11-04T15:52:36;53.10;;;31.52;;
39486;SDS011;25173;50.430;18.926;2022-11-04T15:55:37;47.17;;;27.75;;
39486;SDS011;25173;50.430;18.926;2022-11-04T15:58:40;60.35;;;27.00;;
39486;SDS011;25173;50.430;18.926;2022-11-04T16:01:44;59.80;;;29.95;;
39486;SDS011;25173;50.430;18.926;2022-11-04T16:04:46;49.97;;;27.60;;
39486;SDS011;25173;50.430;18.926;2022-11-04T16:08:21;63.38;;;37.83;;
39486;SDS011;25173;50.430;18.926;2022-11-04T16:11:23;60.35;;;36.47;;
39486;SDS011;25173;50.430;18.926;2022-11-04T16:14:24;144.60;;;83.43;;
39486;SDS011;25173;50.430;18.926;2022-11-04T16:17:28;206.77;;;120.38;;
39486;SDS011;25173;50.430;18.926;2022-11-04T16:20:29;78.57;;;44.22;;
39486;SDS011;25173;50.430;18.926;2022-11-04T16:23:31;87.00;;;56.67;;
39486;SDS011;25173;50.430;18.926;2022-11-04T16:26:39;51.17;;;33.65;;
39486;SDS011;25173;50.430;18.926;2022-11-04T16:29:43;47.22;;;28.15;;
39486;SDS011;25173;50.430;18.926;2022-11-04T16:33:08;41.20;;;25.83;;
39486;SDS011;25173;50.430;18.926;2022-11-04T16:36:14;100.55;;;54.08;;
39486;SDS011;25173;50.430;18.926;2022-11-04T16:39:23;63.03;;;36.25;;
39486;SDS011;25173;50.430;18.926;2022-11-04T16:42:24;70.32;;;38.25;;
39486;SDS011;25173;50.430;18.926;2022-11-04T16:45:26;88.50;;;49.22;;
39486;SDS011;25173;50.430;18.926;2022-11-04T16:48:30;113.72;;;59.30;;
39486;SDS011;25173;50.430;18.926;2022-11-04T16:51:31;116.70;;;63.80;;
39486;SDS011;25173;50.430;18.926;2022-11-04T16:54:33;226.02;;;113.00;;
39486;SDS011;25173;50.430;18.926;2022-11-04T16:57:34;196.57;;;98.03;;
39486;SDS011;25173;50.430;18.926;2022-11-04T17:00:37;283.60;;;144.65;;
39486;SDS011;25173;50.430;18.926;2022-11-04T17:03:43;284.85;;;143.13;;
39486;SDS011;25173;50.430;18.926;2022-11-04T17:06:44;207.95;;;111.60;;
39486;SDS011;25173;50.430;18.926;2022-11-04T17:09:45;206.93;;;112.32;;
39486;SDS011;25173;50.430;18.926;2022-11-04T17:12:46;187.27;;;94.03;;
39486;SDS011;25173;50.430;18.926;2022-11-04T17:15:47;140.20;;;74.15;;
39486;SDS011;25173;50.430;18.926;2022-11-04T17:18:47;117.80;;;63.03;;
39486;SDS011;25173;50.430;18.926;2022-11-04T17:21:48;143.55;;;79.10;;
39486;SDS011;25173;50.430;18.926;2022-11-04T17:24:49;145.00;;;88.00;;
39486;SDS011;25173;50.430;18.926;2022-11-04T17:27:49;99.78;;;59.97;;
39486;SDS011;25173;50.430;18.926;2022-11-04T17:30:50;106.07;;;62.28;;
39486;SDS011;25173;50.430;18.926;2022-11-04T17:33:51;118.45;;;64.70;;
39486;SDS011;25173;50.430;18.926;2022-11-04T17:36:52;108.55;;;64.55;;
39486;SDS011;25173;50.430;18.926;2022-11-04T17:39:53;107.45;;;60.55;;
39486;SDS011;25173;50.430;18.926;2022-11-04T17:42:53;105.95;;;58.80;;
39486;SDS011;25173;50.430;18.926;2022-11-04T17:46:12;99.10;;;51.55;;
39486;SDS011;25173;50.430;18.926;2022-11-04T17:49:33;259.98;;;109.00;;
39486;SDS011;25173;50.430;18.926;2022-11-04T17:52:36;239.95;;;91.72;;
39486;SDS011;25173;50.430;18.926;2022-11-04T17:55:38;117.30;;;48.95;;
39486;SDS011;25173;50.430;18.926;2022-11-04T17:58:39;79.28;;;34.25;;
39486;SDS011;25173;50.430;18.926;2022-11-04T18:01:40;64.22;;;32.15;;
39486;SDS011;25173;50.430;18.926;2022-11-04T18:04:43;51.22;;;28.85;;
39486;SDS011;25173;50.430;18.926;2022-11-04T18:07:44;53.30;;;30.48;;
39486;SDS011;25173;50.430;18.926;2022-11-04T18:10:45;76.15;;;40.03;;
39486;SDS011;25173;50.430;18.926;2022-11-04T18:13:45;90.22;;;46.13;;
39486;SDS011;25173;50.430;18.926;2022-11-04T18:16:46;100.93;;;49.45;;
39486;SDS011;25173;50.430;18.926;2022-11-04T18:19:51;82.03;;;42.40;;
39486;SDS011;25173;50.430;18.926;2022-11-04T18:22:52;82.78;;;44.00;;
39486;SDS011;25173;50.430;18.926;2022-11-04T18:25:53;77.20;;;39.85;;
39486;SDS011;25173;50.430;18.926;2022-11-04T18:28:54;75.85;;;40.45;;
39486;SDS011;25173;50.430;18.926;2022-11-04T18:31:54;72.60;;;38.28;;
39486;SDS011;25173;50.430;18.926;2022-11-04T18:34:55;62.00;;;34.22;;
39486;SDS011;25173;50.430;18.926;2022-11-04T18:37:56;80.65;;;44.00;;
39486;SDS011;25173;50.430;18.926;2022-11-04T18:40:57;82.00;;;45.20;;
39486;SDS011;25173;50.430;18.926;2022-11-04T18:43:58;73.68;;;43.92;;
39486;SDS011;25173;50.430;18.926;2022-11-04T18:47:04;88.38;;;48.17;;
39486;SDS011;25173;50.430;18.926;2022-11-04T18:50:06;82.38;;;45.20;;
39486;SDS011;25173;50.430;18.926;2022-11-04T18:53:11;65.68;;;38.58;;
39486;SDS011;25173;50.430;18.926;2022-11-04T18:56:13;66.43;;;37.53;;
39486;SDS011;25173;50.430;18.926;2022-11-04T18:59:18;91.70;;;46.03;;
39486;SDS011;25173;50.430;18.926;2022-11-04T19:02:22;69.70;;;39.65;;
39486;SDS011;25173;50.430;18.926;2022-11-04T19:05:26;78.18;;;42.67;;
39486;SDS011;25173;50.430;18.926;2022-11-04T19:08:27;67.20;;;41.63;;
39486;SDS011;25173;50.430;18.926;2022-11-04T19:11:29;72.57;;;41.63;;
39486;SDS011;25173;50.430;18.926;2022-11-04T19:14:31;70.53;;;40.10;;
39486;SDS011;25173;50.430;18.926;2022-11-04T19:17:35;72.30;;;43.63;;
39486;SDS011;25173;50.430;18.926;2022-11-04T19:20:36;86.50;;;47.47;;
39486;SDS011;25173;50.430;18.926;2022-11-04T19:23:38;83.13;;;45.70;;
39486;SDS011;25173;50.430;18.926;2022-11-04T19:26:38;96.40;;;56.92;;
39486;SDS011;25173;50.430;18.926;2022-11-04T19:29:40;96.47;;;61.67;;
39486;SDS011;25173;50.430;18.926;2022-11-04T19:32:41;93.93;;;55.97;;
39486;SDS011;25173;50.430;18.926;2022-11-04T19:35:42;90.57;;;57.28;;
39486;SDS011;25173;50.430;18.926;2022-11-04T19:38:44;83.78;;;52.55;;
39486;SDS011;25173;50.430;18.926;2022-11-04T19:41:45;80.85;;;48.17;;
39486;SDS011;25173;50.430;18.926;2022-11-04T19:45:04;55.10;;;33.65;;
39486;SDS011;25173;50.430;18.926;2022-11-04T19:48:05;48.58;;;32.03;;
39486;SDS011;25173;50.430;18.926;2022-11-04T19:51:09;56.38;;;33.40;;
39486;SDS011;25173;50.430;18.926;2022-11-04T19:54:11;56.85;;;38.35;;
39486;SDS011;25173;50.430;18.926;2022-11-04T19:57:12;68.75;;;49.10;;
39486;SDS011;25173;50.430;18.926;2022-11-04T20:00:13;70.28;;;43.85;;
39486;SDS011;25173;50.430;18.926;2022-11-04T20:03:14;56.53;;;39.47;;
39486;SDS011;25173;50.430;18.926;2022-11-04T20:06:15;56.08;;;38.58;;
39486;SDS011;25173;50.430;18.926;2022-11-04T20:09:15;58.60;;;37.45;;
39486;SDS011;25173;50.430;18.926;2022-11-04T20:12:16;58.33;;;36.58;;